• Join FlightAware (Why Join?)
  • Login
  • US Flag 
Gobble Gobble! 
10:42PM EST


 

Airport Tracker/Info


-or-


 

Live Flight TrackerFlight Track Log ✈ FLG3432 ✈ 06-May-2013 ✈ KALB - KMSP

Flight Track Log - Related Links

Times and Time Zones

All times are in EDT time to prevent confusion due to time zone crossing. See the FLG3432 flight status page for this flight to view local times or setup timezone preferences in your user account.

Time Position Orientation Groundspeed Altitude Reporting Facility
EDT Latitude Longitude Course Direction KTS MPH feet Rate Location/Type
06:31AM 42.7256 -73.8053 284° West 140 161 1,500  Level Boston Center
06:32AM 42.7103 -73.8642 251° West 248 285 2,700 1,800 Climbing Boston Center
06:33AM 42.8165 -74.2234 282° West  Level FlightAware Approximate
06:33AM 42.7694 -73.9731 307° West 272 313 6,200  Level Boston Center
06:34AM 42.8392 -74.3683 283° West  Level FlightAware Approximate
06:34AM 42.8181 -74.0619 307° West 282 325 9,000  Level Boston Center
06:35AM 42.8633 -74.5129 283° West  Level FlightAware Approximate
06:35AM 42.8669 -74.1511 307° West 298 343 10,900  Level Boston Center
06:36AM 42.8988 -74.6512 284° West  Level FlightAware Approximate
06:36AM 42.9297 -74.2633 307° West 332 382 13,400  Level Boston Center
06:37AM 42.9822 -74.3644 305° West 349 402 15,300 1,980 Climbing Boston Center
06:38AM 43.0025 -74.5156 280° West 384 442 17,400 1,800 Climbing Boston Center
06:39AM 43.0167 -74.6467 278° West 379 436 19,000 1,740 Climbing Boston Center
06:40AM 43.0344 -74.8092 279° West 386 444 20,900 1,740 Climbing Boston Center
06:41AM 43.0458 -74.9603 276° West 392 451 22,500 1,500 Climbing Boston Center
06:42AM 43.0631 -75.1172 279° West 410 472 24,000 1,320 Climbing Boston Center
06:43AM 43.0758 -75.2769 276° West 415 478 25,200 1,080 Climbing Boston Center
06:44AM 43.0908 -75.4200 278° West 427 491 26,200 1,140 Climbing Boston Center
06:45AM 43.1053 -75.5856 277° West 434 499 27,500 1,440 Climbing Boston Center
06:46AM 43.1214 -75.7514 278° West 434 499 29,100 1,380 Climbing Boston Center
06:48AM 43.1458 -76.0297 277° West 412 474 31,400 1,200 Climbing Cleveland Center
06:49AM 43.1564 -76.1942 275° West 417 480 32,500 1,200 Climbing Cleveland Center
06:50AM 43.1481 -76.3572 266° West 422 486 33,800 1,140 Climbing Cleveland Center
06:51AM 43.1347 -76.5144 263° West 422 486 34,800 1,020 Climbing Cleveland Center
06:52AM 43.1214 -76.6719 263° West 427 491 35,900 600 Climbing Cleveland Center
06:53AM 43.1044 -76.8464 262° West 427 491 36,000  Climbing Cleveland Center
06:54AM 43.0906 -77.0067 263° West 427 491 36,000  Level Cleveland Center
06:55AM 43.0750 -77.1753 263° West 434 499 36,000  Level Cleveland Center
06:56AM 43.0586 -77.3381 262° West 434 499 36,000  Level Cleveland Center
06:57AM 43.0444 -77.4981 263° West 434 499 36,000  Level Cleveland Center
06:58AM 43.0297 -77.6606 263° West 434 499 36,000  Level Cleveland Center
06:59AM 43.0153 -77.8289 263° West 434 499 36,000  Level Cleveland Center
07:00AM 43.0417 -77.9897 283° West 434 499 36,000  Level Cleveland Center
07:01AM 43.0744 -78.1503 286° West 439 505 36,000  Level Cleveland Center
07:02AM 43.1047 -78.3083 285° West 439 505 36,000  Level Cleveland Center
07:03AM 43.1347 -78.4525 286° West 439 505 36,000  Level Cleveland Center
07:04AM 43.1644 -78.6081 285° West 432 497 36,000  Level Cleveland Center
07:05AM 43.1942 -78.7636 285° West 432 497 36,000  Level Cleveland Center
07:06AM 43.2236 -78.9194 285° West 432 497 36,000  Level Cleveland Center
07:06AM 43.2333 -78.9667 286° West 430 495 36,000  Level Toronto Center
07:07AM 43.2500 -79.1333 278° West 430 495 36,000  Level Toronto Center
07:08AM 43.2833 -79.2833 287° West 430 495 36,000  Level Toronto Center
07:09AM 43.3167 -79.4333 287° West 430 495 36,000  Level Toronto Center
07:10AM 43.3333 -79.6167 277° West 430 495 36,000  Level Toronto Center
07:11AM 43.3667 -79.7500 289° West 430 495 36,000  Level Toronto Center
07:12AM 43.4000 -79.9167 285° West 430 495 36,000  Level Toronto Center
07:13AM 43.4333 -80.1000 284° West 430 495 36,000  Level Toronto Center
07:14AM 43.4500 -80.2333 280° West 430 495 36,000  Level Toronto Center
07:15AM 43.4833 -80.3833 287° West 430 495 36,000  Level Toronto Center
07:16AM 43.5167 -80.5500 285° West 430 495 36,000  Level Toronto Center
07:17AM 43.5500 -80.7167 285° West 430 495 36,000  Level Toronto Center
07:18AM 43.5500 -80.8833 270° West 430 495 36,000  Level Toronto Center
07:19AM 43.5833 -81.0333 287° West 440 506 36,000  Level Toronto Center
07:20AM 43.6167 -81.2000 285° West 440 506 36,000  Level Toronto Center
07:21AM 43.6500 -81.3833 284° West 440 506 36,000  Level Toronto Center
07:22AM 43.6667 -81.5167 280° West 440 506 36,000  Level Toronto Center
07:23AM 43.7000 -81.7167 283° West 440 506 36,000  Level Toronto Center
07:24AM 43.7333 -81.8667 287° West 440 506 36,000  Level Toronto Center
07:25AM 43.7500 -82.0333 278° West 440 506 36,000  Level Toronto Center
07:26AM 43.7667 -82.2000 278° West 440 506 36,000  Level Toronto Center
07:27AM 43.8000 -82.3667 286° West 440 506 36,000  Level Toronto Center
07:28AM 43.8333 -82.5167 287° West 440 506 36,000  Level Toronto Center
07:29AM 43.8500 -82.7167 277° West 440 506 36,000  Level Toronto Center
07:30AM 43.8667 -82.8500 280° West 440 506 36,000  Level Toronto Center
07:31AM 43.8875 -82.8686 327° Northwest 437 503 36,000  Level Minneapolis Center
07:32AM 43.9206 -83.1006 281° West 439 505 36,000  Level Minneapolis Center
07:33AM 43.9461 -83.2656 282° West 438 504 36,000  Level Minneapolis Center
07:34AM 43.9703 -83.4314 282° West 439 505 36,000  Level Minneapolis Center
07:35AM 43.9942 -83.5972 281° West 439 505 36,000  Level Minneapolis Center
07:36AM 44.0186 -83.7636 282° West 440 506 36,000  Level Minneapolis Center
07:37AM 44.0408 -83.9306 281° West 440 506 36,000  Level Minneapolis Center
07:38AM 44.0644 -84.0964 281° West 440 506 36,000  Level Minneapolis Center
07:39AM 44.0883 -84.2636 281° West 441 507 36,000  Level Minneapolis Center
07:40AM 44.1122 -84.4314 281° West 443 510 36,000  Level Minneapolis Center
07:41AM 44.1347 -84.6003 281° West 443 510 36,000  Level Minneapolis Center
07:42AM 44.1561 -84.7692 280° West 443 510 36,000  Level Minneapolis Center
07:43AM 44.1792 -84.9378 281° West 444 511 36,000  Level Minneapolis Center
07:44AM 44.2006 -85.1078 280° West 445 512 36,000  Level Minneapolis Center
07:45AM 44.2225 -85.2778 280° West 445 512 36,000  Level Minneapolis Center
07:46AM 44.2444 -85.4467 280° West 444 511 36,000  Level Minneapolis Center
07:47AM 44.2661 -85.6164 280° West 443 510 36,000  Level Minneapolis Center
07:48AM 44.2903 -85.8217 279° West 445 512 36,000  Level Minneapolis Center
07:49AM 44.3114 -85.9919 280° West 444 511 36,000  Level Minneapolis Center
07:50AM 44.3317 -86.1625 279° West 443 510 36,000  Level Minneapolis Center
07:51AM 44.3550 -86.3675 279° West 442 509 36,000  Level Minneapolis Center
07:52AM 44.3756 -86.5386 280° West 444 511 36,000  Level Minneapolis Center
07:53AM 44.3944 -86.7081 279° West 442 509 36,000  Level Minneapolis Center
07:54AM 44.4153 -86.8783 280° West 443 510 36,000  Level Minneapolis Center
07:55AM 44.4331 -87.0475 278° West 440 506 36,000  Level Minneapolis Center
07:56AM 44.4517 -87.2164 279° West 440 506 36,000  Level Minneapolis Center
07:57AM 44.4700 -87.3872 279° West 442 509 36,000  Level Minneapolis Center
07:58AM 44.4892 -87.5558 279° West 439 505 36,000  Level Minneapolis Center
07:59AM 44.5064 -87.7256 278° West 439 505 36,000  Level Minneapolis Center
08:00AM 44.5247 -87.8936 279° West 437 503 36,000  Level Minneapolis Center
08:01AM 44.5414 -88.0703 278° West 435 501 36,000  Level Minneapolis Center
08:02AM 44.5586 -88.2383 278° West 436 502 36,000  Level Minneapolis Center
08:03AM 44.5794 -88.4078 280° West 442 509 36,000  Level Minneapolis Center
08:05AM 44.5925 -88.6026 275° West  Level FlightAware Approximate
08:06AM 44.6253 -88.8025 275° West 441 507 36,000  Level Minneapolis Center
08:07AM 44.6436 -88.9728 279° West 442 509 36,000 -480 Level Minneapolis Center
08:09AM 44.6819 -89.3131 279° West 442 509 34,700 -720 Descending Minneapolis Center
08:10AM 44.6997 -89.4814 279° West 438 504 33,800 -720 Descending Minneapolis Center
08:12AM 44.7266 -89.7978 277° West  Level FlightAware Approximate
08:13AM 44.7547 -90.0028 277° West 454 522 32,000  Level Minneapolis Center
08:14AM 44.7811 -90.2086 280° West 457 526 32,000  Level Minneapolis Center
08:16AM 44.8294 -90.5647 281° West 461 531 32,000 -1,200 Level Minneapolis Center
08:18AM 44.8316 -90.8556 276° West  Level FlightAware Approximate
08:20AM 44.9181 -91.2586 285° West 441 507 24,800  Level Minneapolis Center
08:21AM 44.9406 -91.4208 281° West 430 495 22,600 -2,160 Descending Minneapolis Center
08:22AM 44.9594 -91.5767 280° West 415 478 20,500 -2,040 Descending Minneapolis Center
08:23AM 44.9781 -91.7292 280° West 402 463 18,500 -2,100 Descending Minneapolis Center
08:24AM 45.0025 -91.9067 281° West 390 449 16,300 -2,040 Descending Minneapolis Center
08:25AM 44.9737 -91.9543 285° West  Level FlightAware Approximate
08:26AM 45.0369 -92.1939 280° West 373 429 12,300  Level Minneapolis Center
08:27AM 45.0425 -92.3336 273° West 360 414 11,000 -840 Descending Minneapolis Center
08:28AM 45.0106 -92.4458 248° West 300 345 10,600 -1,140 Descending Minneapolis Center
08:29AM 44.9656 -92.5364 235° Southwest 285 328 8,800 -1,740 Descending Minneapolis Center
08:30AM 44.9214 -92.6267 235° Southwest 280 322 7,100 -900 Descending Minneapolis Center
08:31AM 44.8775 -92.7147 235° Southwest 276 318 7,000 -960 Descending Minneapolis Center
08:33AM 44.8167 -92.9167 247° West 262 302 4,200 -1,080 Descending Minneapolis TRACON
08:34AM 44.8222 -93.0106 275° West 228 262 3,800 -720 Descending Minneapolis Center
08:35AM 44.8325 -93.0778 282° West 181 208 2,800 -900 Descending Minneapolis Center
08:36AM 44.8539 -93.1317 299° West 161 185 2,000 -840 Descending Minneapolis Center
08:37AM 44.8739 -93.1769 302° West 139 160 1,200 -780 Descending Minneapolis Center